sensor_id;sensor_type;location;lat;lon;timestamp;temperature;humidity
25170;DHT22;13129;48.012;10.352;2024-03-08T04:31:31;-0.20;99.90
25170;DHT22;13129;48.012;10.352;2024-03-08T04:33:57;-0.20;99.90
25170;DHT22;13129;48.012;10.352;2024-03-08T04:36:22;-0.20;99.90
25170;DHT22;13129;48.012;10.352;2024-03-08T04:38:50;-0.20;99.90
25170;DHT22;13129;48.012;10.352;2024-03-08T04:41:17;-0.30;99.90
25170;DHT22;13129;48.012;10.352;2024-03-08T04:43:43;-0.30;99.90
25170;DHT22;13129;48.012;10.352;2024-03-08T04:46:27;-0.30;99.90
25170;DHT22;13129;48.012;10.352;2024-03-08T04:48:53;-0.30;99.90
25170;DHT22;13129;48.012;10.352;2024-03-08T04:51:19;-0.30;99.90
25170;DHT22;13129;48.012;10.352;2024-03-08T04:53:45;-0.30;99.90
25170;DHT22;13129;48.012;10.352;2024-03-08T04:56:10;-0.30;99.90
25170;DHT22;13129;48.012;10.352;2024-03-08T04:58:36;-0.30;99.90
25170;DHT22;13129;48.012;10.352;2024-03-08T05:01:02;-0.30;99.90
25170;DHT22;13129;48.012;10.352;2024-03-08T05:03:27;-0.30;99.90
25170;DHT22;13129;48.012;10.352;2024-03-08T05:05:53;-0.30;99.90
25170;DHT22;13129;48.012;10.352;2024-03-08T05:08:19;-0.30;99.90
25170;DHT22;13129;48.012;10.352;2024-03-08T05:10:45;-0.40;99.90
25170;DHT22;13129;48.012;10.352;2024-03-08T05:13:10;-0.40;99.90
25170;DHT22;13129;48.012;10.352;2024-03-08T05:15:38;-0.30;99.90
25170;DHT22;13129;48.012;10.352;2024-03-08T05:18:04;-0.30;99.90
25170;DHT22;13129;48.012;10.352;2024-03-08T05:20:30;-0.30;99.90
25170;DHT22;13129;48.012;10.352;2024-03-08T05:22:56;-0.40;99.90
25170;DHT22;13129;48.012;10.352;2024-03-08T05:25:25;-0.40;99.90
25170;DHT22;13129;48.012;10.352;2024-03-08T05:27:52;-0.40;99.90
25170;DHT22;13129;48.012;10.352;2024-03-08T05:30:17;-0.40;99.90
25170;DHT22;13129;48.012;10.352;2024-03-08T05:32:43;-0.40;99.90
25170;DHT22;13129;48.012;10.352;2024-03-08T05:35:10;-0.50;99.90
25170;DHT22;13129;48.012;10.352;2024-03-08T05:37:37;-0.50;99.90
25170;DHT22;13129;48.012;10.352;2024-03-08T05:40:02;-0.50;99.90
25170;DHT22;13129;48.012;10.352;2024-03-08T05:42:34;-0.50;99.90
25170;DHT22;13129;48.012;10.352;2024-03-08T05:45:00;-0.50;99.90
25170;DHT22;13129;48.012;10.352;2024-03-08T05:47:26;-0.50;99.90
25170;DHT22;13129;48.012;10.352;2024-03-08T05:49:51;-0.50;99.90
25170;DHT22;13129;48.012;10.352;2024-03-08T05:52:19;-0.40;99.90
25170;DHT22;13129;48.012;10.352;2024-03-08T05:54:44;-0.40;99.90
25170;DHT22;13129;48.012;10.352;2024-03-08T05:57:11;-0.40;99.90
25170;DHT22;13129;48.012;10.352;2024-03-08T05:59:36;-0.40;99.90
25170;DHT22;13129;48.012;10.352;2024-03-08T06:02:02;-0.40;99.90
25170;DHT22;13129;48.012;10.352;2024-03-08T06:04:28;-0.40;99.90
25170;DHT22;13129;48.012;10.352;2024-03-08T06:06:54;-0.40;99.90
25170;DHT22;13129;48.012;10.352;2024-03-08T06:09:22;-0.40;99.90
25170;DHT22;13129;48.012;10.352;2024-03-08T06:11:49;-0.40;99.90
25170;DHT22;13129;48.012;10.352;2024-03-08T06:14:14;-0.40;99.90
25170;DHT22;13129;48.012;10.352;2024-03-08T06:16:44;-0.40;99.90
25170;DHT22;13129;48.012;10.352;2024-03-08T06:19:10;-0.40;99.90
25170;DHT22;13129;48.012;10.352;2024-03-08T06:21:35;-0.30;99.90
25170;DHT22;13129;48.012;10.352;2024-03-08T06:24:01;-0.40;99.90
25170;DHT22;13129;48.012;10.352;2024-03-08T06:26:27;-0.40;99.90
25170;DHT22;13129;48.012;10.352;2024-03-08T06:28:54;-0.40;99.90
25170;DHT22;13129;48.012;10.352;2024-03-08T06:31:20;-0.40;99.90
25170;DHT22;13129;48.012;10.352;2024-03-08T06:33:45;-0.40;99.90
25170;DHT22;13129;48.012;10.352;2024-03-08T06:36:11;-0.50;99.90
25170;DHT22;13129;48.012;10.352;2024-03-08T06:38:38;-0.40;99.90
25170;DHT22;13129;48.012;10.352;2024-03-08T06:41:10;-0.40;99.90
25170;DHT22;13129;48.012;10.352;2024-03-08T06:43:42;-0.40;99.90
25170;DHT22;13129;48.012;10.352;2024-03-08T06:46:08;-0.40;99.90
25170;DHT22;13129;48.012;10.352;2024-03-08T06:48:34;-0.40;99.90
25170;DHT22;13129;48.012;10.352;2024-03-08T06:51:00;-0.40;99.90
25170;DHT22;13129;48.012;10.352;2024-03-08T06:53:26;-0.30;99.90
25170;DHT22;13129;48.012;10.352;2024-03-08T06:55:51;-0.30;99.90
25170;DHT22;13129;48.012;10.352;2024-03-08T06:58:17;-0.20;99.90
25170;DHT22;13129;48.012;10.352;2024-03-08T07:00:42;-0.10;99.90
25170;DHT22;13129;48.012;10.352;2024-03-08T07:03:09;-0.10;99.90
25170;DHT22;13129;48.012;10.352;2024-03-08T07:05:37;-0.10;99.90
25170;DHT22;13129;48.012;10.352;2024-03-08T07:08:03;-0.10;99.90
25170;DHT22;13129;48.012;10.352;2024-03-08T07:10:29;-0.10;99.90
25170;DHT22;13129;48.012;10.352;2024-03-08T07:12:55;-0.10;99.90
25170;DHT22;13129;48.012;10.352;2024-03-08T07:15:20;-0.10;99.90
25170;DHT22;13129;48.012;10.352;2024-03-08T07:17:47;0.00;99.90
25170;DHT22;13129;48.012;10.352;2024-03-08T07:20:13;-0.10;99.90
25170;DHT22;13129;48.012;10.352;2024-03-08T07:22:41;-0.10;99.90
25170;DHT22;13129;48.012;10.352;2024-03-08T07:25:07;-0.10;99.90
25170;DHT22;13129;48.012;10.352;2024-03-08T07:27:33;-0.10;99.90
25170;DHT22;13129;48.012;10.352;2024-03-08T07:29:59;0.00;99.90
25170;DHT22;13129;48.012;10.352;2024-03-08T07:32:26;0.00;99.90
25170;DHT22;13129;48.012;10.352;2024-03-08T07:34:53;0.00;99.90
25170;DHT22;13129;48.012;10.352;2024-03-08T07:37:20;0.00;99.90
25170;DHT22;13129;48.012;10.352;2024-03-08T07:39:46;-0.10;99.90
25170;DHT22;13129;48.012;10.352;2024-03-08T07:42:12;0.00;99.90
25170;DHT22;13129;48.012;10.352;2024-03-08T07:44:38;0.00;99.90
25170;DHT22;13129;48.012;10.352;2024-03-08T07:47:04;0.00;99.90
25170;DHT22;13129;48.012;10.352;2024-03-08T07:49:30;0.10;99.90
25170;DHT22;13129;48.012;10.352;2024-03-08T07:51:56;0.10;99.90
25170;DHT22;13129;48.012;10.352;2024-03-08T07:54:22;0.20;99.90
25170;DHT22;13129;48.012;10.352;2024-03-08T07:56:47;0.40;99.90
25170;DHT22;13129;48.012;10.352;2024-03-08T07:59:13;0.30;99.90
25170;DHT22;13129;48.012;10.352;2024-03-08T08:01:39;0.40;99.90
25170;DHT22;13129;48.012;10.352;2024-03-08T08:04:04;0.40;99.90
25170;DHT22;13129;48.012;10.352;2024-03-08T08:06:30;0.40;99.90
25170;DHT22;13129;48.012;10.352;2024-03-08T08:09:00;0.40;99.90
25170;DHT22;13129;48.012;10.352;2024-03-08T08:11:27;0.50;99.90
25170;DHT22;13129;48.012;10.352;2024-03-08T08:13:54;0.60;99.90
25170;DHT22;13129;48.012;10.352;2024-03-08T08:16:22;0.70;99.90
25170;DHT22;13129;48.012;10.352;2024-03-08T08:18:48;0.70;99.90
25170;DHT22;13129;48.012;10.352;2024-03-08T08:21:14;0.80;99.90
25170;DHT22;13129;48.012;10.352;2024-03-08T08:23:39;0.80;99.90
25170;DHT22;13129;48.012;10.352;2024-03-08T08:26:05;0.90;99.90
25170;DHT22;13129;48.012;10.352;2024-03-08T08:28:33;0.80;99.90
25170;DHT22;13129;48.012;10.352;2024-03-08T08:30:58;0.80;99.90
25170;DHT22;13129;48.012;10.352;2024-03-08T08:33:25;0.90;99.90
25170;DHT22;13129;48.012;10.352;2024-03-08T08:35:51;0.80;99.90
25170;DHT22;13129;48.012;10.352;2024-03-08T08:38:19;0.80;99.90
25170;DHT22;13129;48.012;10.352;2024-03-08T08:40:45;0.80;99.90
25170;DHT22;13129;48.012;10.352;2024-03-08T08:43:12;0.90;99.90
25170;DHT22;13129;48.012;10.352;2024-03-08T08:45:38;0.90;99.90
25170;DHT22;13129;48.012;10.352;2024-03-08T08:48:04;0.90;99.90
25170;DHT22;13129;48.012;10.352;2024-03-08T08:50:30;0.80;99.90
25170;DHT22;13129;48.012;10.352;2024-03-08T08:52:56;0.80;99.90
25170;DHT22;13129;48.012;10.352;2024-03-08T08:55:22;0.80;99.90
25170;DHT22;13129;48.012;10.352;2024-03-08T08:57:54;0.90;99.90
25170;DHT22;13129;48.012;10.352;2024-03-08T09:00:21;1.00;99.90
25170;DHT22;13129;48.012;10.352;2024-03-08T09:02:49;1.20;99.90
25170;DHT22;13129;48.012;10.352;2024-03-08T09:05:16;1.10;99.90
25170;DHT22;13129;48.012;10.352;2024-03-08T09:07:45;1.20;99.90
25170;DHT22;13129;48.012;10.352;2024-03-08T09:10:10;1.30;99.90
25170;DHT22;13129;48.012;10.352;2024-03-08T09:12:41;1.40;99.90
25170;DHT22;13129;48.012;10.352;2024-03-08T09:15:07;1.50;99.90
25170;DHT22;13129;48.012;10.352;2024-03-08T09:17:39;1.50;99.90
25170;DHT22;13129;48.012;10.352;2024-03-08T09:20:09;1.50;99.90
25170;DHT22;13129;48.012;10.352;2024-03-08T09:22:35;1.60;99.90
25170;DHT22;13129;48.012;10.352;2024-03-08T09:25:01;1.60;99.90
25170;DHT22;13129;48.012;10.352;2024-03-08T09:27:27;1.70;99.90
25170;DHT22;13129;48.012;10.352;2024-03-08T09:29:54;1.70;99.90
25170;DHT22;13129;48.012;10.352;2024-03-08T09:32:20;1.90;99.90
25170;DHT22;13129;48.012;10.352;2024-03-08T09:34:46;1.80;99.90
25170;DHT22;13129;48.012;10.352;2024-03-08T09:37:12;1.90;99.90
25170;DHT22;13129;48.012;10.352;2024-03-08T09:39:38;2.00;99.90
25170;DHT22;13129;48.012;10.352;2024-03-08T09:42:04;2.00;99.90
25170;DHT22;13129;48.012;10.352;2024-03-08T09:44:31;2.00;99.90
25170;DHT22;13129;48.012;10.352;2024-03-08T09:47:00;2.00;99.90
25170;DHT22;13129;48.012;10.352;2024-03-08T09:49:27;2.00;99.90
25170;DHT22;13129;48.012;10.352;2024-03-08T09:51:54;2.00;99.90
25170;DHT22;13129;48.012;10.352;2024-03-08T09:54:21;1.90;99.90
25170;DHT22;13129;48.012;10.352;2024-03-08T09:56:48;1.90;99.90
25170;DHT22;13129;48.012;10.352;2024-03-08T09:59:16;2.00;99.90
25170;DHT22;13129;48.012;10.352;2024-03-08T10:01:53;2.00;99.90
25170;DHT22;13129;48.012;10.352;2024-03-08T10:04:22;2.00;99.90
25170;DHT22;13129;48.012;10.352;2024-03-08T10:06:47;2.10;99.90
25170;DHT22;13129;48.012;10.352;2024-03-08T10:09:14;2.20;99.90
25170;DHT22;13129;48.012;10.352;2024-03-08T10:11:42;2.20;99.90
25170;DHT22;13129;48.012;10.352;2024-03-08T10:14:09;2.10;99.90
25170;DHT22;13129;48.012;10.352;2024-03-08T10:16:34;2.20;99.90
25170;DHT22;13129;48.012;10.352;2024-03-08T10:19:00;2.20;99.90
25170;DHT22;13129;48.012;10.352;2024-03-08T10:21:26;2.20;99.90
25170;DHT22;13129;48.012;10.352;2024-03-08T10:23:52;2.30;99.90
25170;DHT22;13129;48.012;10.352;2024-03-08T10:26:19;2.40;99.90
25170;DHT22;13129;48.012;10.352;2024-03-08T10:28:48;2.60;99.90
25170;DHT22;13129;48.012;10.352;2024-03-08T10:31:14;2.60;99.90
25170;DHT22;13129;48.012;10.352;2024-03-08T10:33:40;2.60;99.90
25170;DHT22;13129;48.012;10.352;2024-03-08T10:36:10;2.70;99.90
25170;DHT22;13129;48.012;10.352;2024-03-08T10:38:37;2.70;99.90
25170;DHT22;13129;48.012;10.352;2024-03-08T10:41:06;2.70;99.90
25170;DHT22;13129;48.012;10.352;2024-03-08T10:46:35;2.80;99.90
25170;DHT22;13129;48.012;10.352;2024-03-08T10:49:04;2.70;99.90
25170;DHT22;13129;48.012;10.352;2024-03-08T10:51:33;2.90;99.90
25170;DHT22;13129;48.012;10.352;2024-03-08T10:53:59;2.90;99.90
25170;DHT22;13129;48.012;10.352;2024-03-08T10:56:28;3.10;99.90
25170;DHT22;13129;48.012;10.352;2024-03-08T10:58:54;3.10;99.90
25170;DHT22;13129;48.012;10.352;2024-03-08T11:01:21;3.20;99.90
25170;DHT22;13129;48.012;10.352;2024-03-08T11:03:47;3.30;99.90
25170;DHT22;13129;48.012;10.352;2024-03-08T11:09:02;3.50;99.90
25170;DHT22;13129;48.012;10.352;2024-03-08T11:11:29;3.60;99.90
25170;DHT22;13129;48.012;10.352;2024-03-08T11:13:56;3.60;99.90
25170;DHT22;13129;48.012;10.352;2024-03-08T11:16:37;3.70;99.90
25170;DHT22;13129;48.012;10.352;2024-03-08T11:19:23;3.70;99.90
25170;DHT22;13129;48.012;10.352;2024-03-08T11:21:57;3.70;99.90
25170;DHT22;13129;48.012;10.352;2024-03-08T11:24:23;3.90;99.90
25170;DHT22;13129;48.012;10.352;2024-03-08T11:26:49;3.90;99.90
25170;DHT22;13129;48.012;10.352;2024-03-08T11:32:12;4.00;99.90
25170;DHT22;13129;48.012;10.352;2024-03-08T11:34:42;4.00;99.90
25170;DHT22;13129;48.012;10.352;2024-03-08T11:37:13;3.90;99.90
25170;DHT22;13129;48.012;10.352;2024-03-08T11:42:18;4.30;99.90
25170;DHT22;13129;48.012;10.352;2024-03-08T11:44:45;4.40;99.90
25170;DHT22;13129;48.012;10.352;2024-03-08T11:47:11;4.60;99.90
25170;DHT22;13129;48.012;10.352;2024-03-08T11:49:38;4.90;99.90
25170;DHT22;13129;48.012;10.352;2024-03-08T11:52:04;5.10;99.90
25170;DHT22;13129;48.012;10.352;2024-03-08T11:54:31;5.50;99.90
25170;DHT22;13129;48.012;10.352;2024-03-08T11:56:57;5.80;99.90
25170;DHT22;13129;48.012;10.352;2024-03-08T11:59:27;6.00;99.90
25170;DHT22;13129;48.012;10.352;2024-03-08T12:02:04;6.00;99.90
25170;DHT22;13129;48.012;10.352;2024-03-08T12:04:30;6.20;99.90
25170;DHT22;13129;48.012;10.352;2024-03-08T12:06:59;6.30;99.90
25170;DHT22;13129;48.012;10.352;2024-03-08T12:09:28;6.30;99.90
25170;DHT22;13129;48.012;10.352;2024-03-08T12:11:53;6.20;99.90
25170;DHT22;13129;48.012;10.352;2024-03-08T12:14:19;6.30;99.90
25170;DHT22;13129;48.012;10.352;2024-03-08T12:16:46;6.50;99.90
25170;DHT22;13129;48.012;10.352;2024-03-08T12:19:12;6.90;99.90
25170;DHT22;13129;48.012;10.352;2024-03-08T12:21:38;7.10;99.90
25170;DHT22;13129;48.012;10.352;2024-03-08T12:24:10;7.30;99.90
25170;DHT22;13129;48.012;10.352;2024-03-08T12:26:39;7.20;99.90
25170;DHT22;13129;48.012;10.352;2024-03-08T12:29:20;7.10;99.90
25170;DHT22;13129;48.012;10.352;2024-03-08T12:31:50;7.00;99.90
25170;DHT22;13129;48.012;10.352;2024-03-08T12:34:16;6.90;99.90
25170;DHT22;13129;48.012;10.352;2024-03-08T12:36:50;6.80;99.90
25170;DHT22;13129;48.012;10.352;2024-03-08T12:39:18;6.50;99.90
25170;DHT22;13129;48.012;10.352;2024-03-08T12:42:03;6.40;99.90
25170;DHT22;13129;48.012;10.352;2024-03-08T12:44:29;6.30;99.90
25170;DHT22;13129;48.012;10.352;2024-03-08T12:46:54;6.30;99.90
25170;DHT22;13129;48.012;10.352;2024-03-08T12:49:20;6.30;99.90
25170;DHT22;13129;48.012;10.352;2024-03-08T12:51:49;6.40;99.90
25170;DHT22;13129;48.012;10.352;2024-03-08T12:54:15;6.60;99.90
25170;DHT22;13129;48.012;10.352;2024-03-08T12:56:40;6.70;99.90
25170;DHT22;13129;48.012;10.352;2024-03-08T12:59:07;6.70;99.90
25170;DHT22;13129;48.012;10.352;2024-03-08T13:01:34;6.90;99.90
25170;DHT22;13129;48.012;10.352;2024-03-08T13:04:02;7.00;99.90
25170;DHT22;13129;48.012;10.352;2024-03-08T13:06:29;7.00;99.90
25170;DHT22;13129;48.012;10.352;2024-03-08T13:08:56;7.00;99.90
25170;DHT22;13129;48.012;10.352;2024-03-08T13:11:24;7.10;99.90
25170;DHT22;13129;48.012;10.352;2024-03-08T13:13:50;7.30;99.90
25170;DHT22;13129;48.012;10.352;2024-03-08T13:16:16;7.30;99.90
25170;DHT22;13129;48.012;10.352;2024-03-08T13:18:43;7.30;99.90
25170;DHT22;13129;48.012;10.352;2024-03-08T13:21:12;7.30;99.90
25170;DHT22;13129;48.012;10.352;2024-03-08T13:23:41;7.30;99.90
25170;DHT22;13129;48.012;10.352;2024-03-08T13:26:10;7.20;99.90
25170;DHT22;13129;48.012;10.352;2024-03-08T13:28:47;7.30;99.90
25170;DHT22;13129;48.012;10.352;2024-03-08T13:31:14;7.40;99.90
25170;DHT22;13129;48.012;10.352;2024-03-08T13:33:40;7.40;99.90
25170;DHT22;13129;48.012;10.352;2024-03-08T13:36:08;7.60;99.90
25170;DHT22;13129;48.012;10.352;2024-03-08T13:38:45;7.70;99.90
25170;DHT22;13129;48.012;10.352;2024-03-08T13:41:12;7.80;99.90
25170;DHT22;13129;48.012;10.352;2024-03-08T13:43:40;7.70;99.90
25170;DHT22;13129;48.012;10.352;2024-03-08T13:46:06;7.80;99.90
25170;DHT22;13129;48.012;10.352;2024-03-08T13:48:33;7.90;99.90
25170;DHT22;13129;48.012;10.352;2024-03-08T13:50:59;7.90;99.90
25170;DHT22;13129;48.012;10.352;2024-03-08T13:53:26;8.00;99.90
25170;DHT22;13129;48.012;10.352;2024-03-08T13:55:51;8.10;99.90
25170;DHT22;13129;48.012;10.352;2024-03-08T13:58:17;8.10;99.90
25170;DHT22;13129;48.012;10.352;2024-03-08T14:00:42;8.20;99.90
25170;DHT22;13129;48.012;10.352;2024-03-08T14:03:11;8.20;99.90
25170;DHT22;13129;48.012;10.352;2024-03-08T14:05:41;8.20;99.90
25170;DHT22;13129;48.012;10.352;2024-03-08T14:08:08;8.20;99.90
25170;DHT22;13129;48.012;10.352;2024-03-08T14:10:34;8.20;99.90
25170;DHT22;13129;48.012;10.352;2024-03-08T14:13:00;8.30;99.90
25170;DHT22;13129;48.012;10.352;2024-03-08T14:15:28;8.30;99.90
25170;DHT22;13129;48.012;10.352;2024-03-08T14:17:54;8.30;99.90
25170;DHT22;13129;48.012;10.352;2024-03-08T14:20:21;8.30;99.90
25170;DHT22;13129;48.012;10.352;2024-03-08T14:22:51;8.40;99.90
25170;DHT22;13129;48.012;10.352;2024-03-08T14:25:17;8.40;99.90
25170;DHT22;13129;48.012;10.352;2024-03-08T14:27:44;8.50;99.90
25170;DHT22;13129;48.012;10.352;2024-03-08T14:30:11;8.40;99.90
25170;DHT22;13129;48.012;10.352;2024-03-08T14:32:36;8.50;99.90
25170;DHT22;13129;48.012;10.352;2024-03-08T14:35:07;8.40;99.90
25170;DHT22;13129;48.012;10.352;2024-03-08T14:37:34;8.50;99.90
25170;DHT22;13129;48.012;10.352;2024-03-08T14:40:00;8.50;99.90
25170;DHT22;13129;48.012;10.352;2024-03-08T14:42:25;8.50;99.90
25170;DHT22;13129;48.012;10.352;2024-03-08T14:44:51;8.50;99.90
25170;DHT22;13129;48.012;10.352;2024-03-08T14:47:19;8.60;99.90
25170;DHT22;13129;48.012;10.352;2024-03-08T14:49:45;8.60;99.90
25170;DHT22;13129;48.012;10.352;2024-03-08T14:52:10;8.50;99.90
25170;DHT22;13129;48.012;10.352;2024-03-08T14:54:55;8.60;99.90
25170;DHT22;13129;48.012;10.352;2024-03-08T14:57:22;8.60;99.90
25170;DHT22;13129;48.012;10.352;2024-03-08T14:59:47;8.60;99.90
25170;DHT22;13129;48.012;10.352;2024-03-08T15:02:13;8.60;99.90
25170;DHT22;13129;48.012;10.352;2024-03-08T15:04:39;8.60;99.90
25170;DHT22;13129;48.012;10.352;2024-03-08T15:07:07;8.60;99.90
25170;DHT22;13129;48.012;10.352;2024-03-08T15:09:35;8.50;99.90
25170;DHT22;13129;48.012;10.352;2024-03-08T15:12:06;8.50;99.90
25170;DHT22;13129;48.012;10.352;2024-03-08T15:14:33;8.50;99.90
25170;DHT22;13129;48.012;10.352;2024-03-08T15:16:59;8.40;99.90
25170;DHT22;13129;48.012;10.352;2024-03-08T15:19:26;8.40;99.90
25170;DHT22;13129;48.012;10.352;2024-03-08T15:21:53;8.40;99.90
25170;DHT22;13129;48.012;10.352;2024-03-08T15:24:21;8.40;99.90
25170;DHT22;13129;48.012;10.352;2024-03-08T15:26:48;8.30;99.90
25170;DHT22;13129;48.012;10.352;2024-03-08T15:29:20;8.30;99.90
25170;DHT22;13129;48.012;10.352;2024-03-08T15:31:52;8.20;99.90
25170;DHT22;13129;48.012;10.352;2024-03-08T15:34:22;8.30;99.90
25170;DHT22;13129;48.012;10.352;2024-03-08T15:36:56;8.10;99.90
25170;DHT22;13129;48.012;10.352;2024-03-08T15:39:27;8.10;99.90
25170;DHT22;13129;48.012;10.352;2024-03-08T15:41:59;8.10;99.90
25170;DHT22;13129;48.012;10.352;2024-03-08T15:44:31;8.00;99.90
25170;DHT22;13129;48.012;10.352;2024-03-08T15:47:00;8.00;99.90
25170;DHT22;13129;48.012;10.352;2024-03-08T15:49:26;8.00;99.90
25170;DHT22;13129;48.012;10.352;2024-03-08T15:51:51;7.90;99.90
25170;DHT22;13129;48.012;10.352;2024-03-08T15:54:17;7.80;99.90
25170;DHT22;13129;48.012;10.352;2024-03-08T15:56:43;7.80;99.90
25170;DHT22;13129;48.012;10.352;2024-03-08T15:59:09;7.70;99.90
25170;DHT22;13129;48.012;10.352;2024-03-08T16:01:36;7.70;99.90
25170;DHT22;13129;48.012;10.352;2024-03-08T16:04:02;7.60;99.90
25170;DHT22;13129;48.012;10.352;2024-03-08T16:06:29;7.60;99.90
25170;DHT22;13129;48.012;10.352;2024-03-08T16:08:55;7.50;99.90
25170;DHT22;13129;48.012;10.352;2024-03-08T16:11:24;7.50;99.90
25170;DHT22;13129;48.012;10.352;2024-03-08T16:13:51;7.40;99.90
25170;DHT22;13129;48.012;10.352;2024-03-08T16:16:16;7.30;99.90
25170;DHT22;13129;48.012;10.352;2024-03-08T16:18:42;7.30;99.90
25170;DHT22;13129;48.012;10.352;2024-03-08T16:21:08;7.20;99.90
25170;DHT22;13129;48.012;10.352;2024-03-08T16:23:34;7.10;99.90
25170;DHT22;13129;48.012;10.352;2024-03-08T16:26:00;7.10;99.90
25170;DHT22;13129;48.012;10.352;2024-03-08T16:28:26;7.00;99.90
25170;DHT22;13129;48.012;10.352;2024-03-08T16:30:53;6.90;99.90
25170;DHT22;13129;48.012;10.352;2024-03-08T16:33:20;6.80;99.90
25170;DHT22;13129;48.012;10.352;2024-03-08T16:35:47;6.70;99.90
25170;DHT22;13129;48.012;10.352;2024-03-08T16:38:14;6.70;99.90
25170;DHT22;13129;48.012;10.352;2024-03-08T16:40:40;6.50;99.90
25170;DHT22;13129;48.012;10.352;2024-03-08T16:43:06;6.40;99.90
25170;DHT22;13129;48.012;10.352;2024-03-08T16:45:43;6.30;99.90
25170;DHT22;13129;48.012;10.352;2024-03-08T16:48:10;6.20;99.90
25170;DHT22;13129;48.012;10.352;2024-03-08T16:50:35;6.10;99.90
25170;DHT22;13129;48.012;10.352;2024-03-08T16:53:02;6.00;99.90
25170;DHT22;13129;48.012;10.352;2024-03-08T16:55:29;5.90;99.90
25170;DHT22;13129;48.012;10.352;2024-03-08T16:57:56;5.80;99.90
25170;DHT22;13129;48.012;10.352;2024-03-08T17:00:25;5.70;99.90
25170;DHT22;13129;48.012;10.352;2024-03-08T17:02:57;5.60;99.90
25170;DHT22;13129;48.012;10.352;2024-03-08T17:05:24;5.50;99.90
25170;DHT22;13129;48.012;10.352;2024-03-08T17:08:00;5.40;99.90
25170;DHT22;13129;48.012;10.352;2024-03-08T17:10:30;5.30;99.90
25170;DHT22;13129;48.012;10.352;2024-03-08T17:12:57;5.20;99.90
25170;DHT22;13129;48.012;10.352;2024-03-08T17:15:30;5.20;99.90
25170;DHT22;13129;48.012;10.352;2024-03-08T17:17:58;5.10;99.90
25170;DHT22;13129;48.012;10.352;2024-03-08T17:20:25;5.10;99.90
25170;DHT22;13129;48.012;10.352;2024-03-08T17:22:56;4.90;99.90
25170;DHT22;13129;48.012;10.352;2024-03-08T17:25:23;4.90;99.90
25170;DHT22;13129;48.012;10.352;2024-03-08T17:27:58;4.90;99.90
25170;DHT22;13129;48.012;10.352;2024-03-08T17:30:32;4.80;99.90
25170;DHT22;13129;48.012;10.352;2024-03-08T17:32:59;4.70;99.90
25170;DHT22;13129;48.012;10.352;2024-03-08T17:35:29;4.70;99.90
25170;DHT22;13129;48.012;10.352;2024-03-08T17:37:58;4.60;99.90
25170;DHT22;13129;48.012;10.352;2024-03-08T17:40:26;4.50;99.90
25170;DHT22;13129;48.012;10.352;2024-03-08T17:42:56;4.50;99.90
25170;DHT22;13129;48.012;10.352;2024-03-08T17:45:23;4.40;99.90
25170;DHT22;13129;48.012;10.352;2024-03-08T17:47:50;4.40;99.90
25170;DHT22;13129;48.012;10.352;2024-03-08T17:50:17;4.50;99.90
25170;DHT22;13129;48.012;10.352;2024-03-08T17:52:47;4.40;99.90
25170;DHT22;13129;48.012;10.352;2024-03-08T17:55:14;4.40;99.90
25170;DHT22;13129;48.012;10.352;2024-03-08T17:57:42;4.40;99.90
25170;DHT22;13129;48.012;10.352;2024-03-08T18:00:11;4.40;99.90
25170;DHT22;13129;48.012;10.352;2024-03-08T18:02:57;4.30;99.90
25170;DHT22;13129;48.012;10.352;2024-03-08T18:05:26;4.30;99.90
25170;DHT22;13129;48.012;10.352;2024-03-08T18:08:00;4.30;99.90
25170;DHT22;13129;48.012;10.352;2024-03-08T18:10:27;4.30;99.90
25170;DHT22;13129;48.012;10.352;2024-03-08T18:12:58;4.30;99.90
25170;DHT22;13129;48.012;10.352;2024-03-08T18:15:25;4.20;99.90
25170;DHT22;13129;48.012;10.352;2024-03-08T18:17:55;4.20;99.90
25170;DHT22;13129;48.012;10.352;2024-03-08T18:20:22;4.10;99.90
25170;DHT22;13129;48.012;10.352;2024-03-08T18:22:55;4.00;99.90
25170;DHT22;13129;48.012;10.352;2024-03-08T18:25:22;4.00;99.90
25170;DHT22;13129;48.012;10.352;2024-03-08T18:27:49;4.00;99.90
25170;DHT22;13129;48.012;10.352;2024-03-08T18:30:15;4.00;99.90
25170;DHT22;13129;48.012;10.352;2024-03-08T18:32:47;3.90;99.90
25170;DHT22;13129;48.012;10.352;2024-03-08T18:35:14;3.90;99.90
25170;DHT22;13129;48.012;10.352;2024-03-08T18:37:42;3.90;99.90
25170;DHT22;13129;48.012;10.352;2024-03-08T18:40:08;3.90;99.90
25170;DHT22;13129;48.012;10.352;2024-03-08T18:42:37;3.90;99.90
25170;DHT22;13129;48.012;10.352;2024-03-08T18:45:06;4.00;99.90
25170;DHT22;13129;48.012;10.352;2024-03-08T18:47:43;3.90;99.90
25170;DHT22;13129;48.012;10.352;2024-03-08T18:50:13;3.80;99.90
25170;DHT22;13129;48.012;10.352;2024-03-08T18:52:43;3.90;99.90
25170;DHT22;13129;48.012;10.352;2024-03-08T18:55:10;3.80;99.90
25170;DHT22;13129;48.012;10.352;2024-03-08T18:57:39;3.80;99.90
25170;DHT22;13129;48.012;10.352;2024-03-08T19:00:08;3.80;99.90
25170;DHT22;13129;48.012;10.352;2024-03-08T19:02:47;3.90;99.90
25170;DHT22;13129;48.012;10.352;2024-03-08T19:05:14;3.80;99.90
25170;DHT22;13129;48.012;10.352;2024-03-08T19:07:47;3.70;99.90
25170;DHT22;13129;48.012;10.352;2024-03-08T19:10:16;3.60;99.90
25170;DHT22;13129;48.012;10.352;2024-03-08T19:12:46;3.60;99.90
25170;DHT22;13129;48.012;10.352;2024-03-08T19:15:15;3.40;99.90
25170;DHT22;13129;48.012;10.352;2024-03-08T19:17:44;3.30;99.90
25170;DHT22;13129;48.012;10.352;2024-03-08T19:20:10;3.20;99.90
25170;DHT22;13129;48.012;10.352;2024-03-08T19:22:42;3.10;99.90
25170;DHT22;13129;48.012;10.352;2024-03-08T19:25:08;3.20;99.90
25170;DHT22;13129;48.012;10.352;2024-03-08T19:27:36;3.00;99.90
25170;DHT22;13129;48.012;10.352;2024-03-08T19:30:04;2.90;99.90
25170;DHT22;13129;48.012;10.352;2024-03-08T19:32:30;2.90;99.90
25170;DHT22;13129;48.012;10.352;2024-03-08T19:34:55;3.00;99.90
25170;DHT22;13129;48.012;10.352;2024-03-08T19:37:22;2.80;99.90
25170;DHT22;13129;48.012;10.352;2024-03-08T19:39:47;2.70;99.90
25170;DHT22;13129;48.012;10.352;2024-03-08T19:42:13;2.70;99.90
25170;DHT22;13129;48.012;10.352;2024-03-08T19:44:39;2.70;99.90
25170;DHT22;13129;48.012;10.352;2024-03-08T19:47:06;2.70;99.90
25170;DHT22;13129;48.012;10.352;2024-03-08T19:49:33;2.80;99.90
25170;DHT22;13129;48.012;10.352;2024-03-08T19:51:59;2.80;99.90
25170;DHT22;13129;48.012;10.352;2024-03-08T19:54:29;2.70;99.90
25170;DHT22;13129;48.012;10.352;2024-03-08T19:56:57;2.60;99.90
25170;DHT22;13129;48.012;10.352;2024-03-08T19:59:25;2.50;99.90
25170;DHT22;13129;48.012;10.352;2024-03-08T20:01:51;2.50;99.90
25170;DHT22;13129;48.012;10.352;2024-03-08T20:04:16;2.40;99.90
25170;DHT22;13129;48.012;10.352;2024-03-08T20:06:42;2.40;99.90
25170;DHT22;13129;48.012;10.352;2024-03-08T20:09:11;2.30;99.90
25170;DHT22;13129;48.012;10.352;2024-03-08T20:11:37;2.30;99.90